sensor_id;sensor_type;location;lat;lon;timestamp;P1;durP1;ratioP1;P2;durP2;ratioP2
68432;SDS011;55412;51.350;17.056;2022-08-26T06:38:36;14.82;;;9.90;;
68432;SDS011;55412;51.350;17.056;2022-08-26T06:41:02;15.33;;;10.93;;
68432;SDS011;55412;51.350;17.056;2022-08-26T06:43:28;14.93;;;10.13;;
68432;SDS011;55412;51.350;17.056;2022-08-26T06:46:02;18.77;;;11.95;;
68432;SDS011;55412;51.350;17.056;2022-08-26T06:48:34;15.75;;;11.70;;
68432;SDS011;55412;51.350;17.056;2022-08-26T06:51:35;13.25;;;10.57;;
68432;SDS011;55412;51.350;17.056;2022-08-26T06:53:56;14.10;;;9.80;;
68432;SDS011;55412;51.350;17.056;2022-08-26T06:56:25;15.02;;;9.63;;
68432;SDS011;55412;51.350;17.056;2022-08-26T06:59:05;12.38;;;6.97;;
68432;SDS011;55412;51.350;17.056;2022-08-26T07:01:33;14.00;;;10.32;;
68432;SDS011;55412;51.350;17.056;2022-08-26T07:04:03;12.43;;;6.95;;
68432;SDS011;55412;51.350;17.056;2022-08-26T07:06:34;14.57;;;8.47;;
68432;SDS011;55412;51.350;17.056;2022-08-26T07:09:03;13.60;;;7.78;;
68432;SDS011;55412;51.350;17.056;2022-08-26T07:11:31;16.33;;;9.00;;
68432;SDS011;55412;51.350;17.056;2022-08-26T07:13:59;14.63;;;9.50;;
68432;SDS011;55412;51.350;17.056;2022-08-26T07:16:26;14.80;;;9.95;;
68432;SDS011;55412;51.350;17.056;2022-08-26T07:18:53;16.33;;;10.67;;
68432;SDS011;55412;51.350;17.056;2022-08-26T07:21:19;15.18;;;8.55;;
68432;SDS011;55412;51.350;17.056;2022-08-26T07:23:47;18.02;;;9.48;;
68432;SDS011;55412;51.350;17.056;2022-08-26T07:26:15;14.77;;;9.25;;
68432;SDS011;55412;51.350;17.056;2022-08-26T07:28:46;17.80;;;8.57;;
68432;SDS011;55412;51.350;17.056;2022-08-26T07:31:15;12.10;;;7.37;;
68432;SDS011;55412;51.350;17.056;2022-08-26T07:33:42;12.80;;;7.57;;
68432;SDS011;55412;51.350;17.056;2022-08-26T07:36:09;11.73;;;7.47;;
68432;SDS011;55412;51.350;17.056;2022-08-26T07:38:38;15.50;;;6.43;;
68432;SDS011;55412;51.350;17.056;2022-08-26T07:41:06;11.82;;;6.68;;
68432;SDS011;55412;51.350;17.056;2022-08-26T07:43:33;14.63;;;6.20;;
68432;SDS011;55412;51.350;17.056;2022-08-26T07:46:00;18.02;;;7.00;;
68432;SDS011;55412;51.350;17.056;2022-08-26T07:48:28;11.00;;;5.72;;
68432;SDS011;55412;51.350;17.056;2022-08-26T07:50:55;12.23;;;6.78;;
68432;SDS011;55412;51.350;17.056;2022-08-26T07:53:21;15.90;;;6.00;;
68432;SDS011;55412;51.350;17.056;2022-08-26T07:55:48;12.87;;;6.03;;
68432;SDS011;55412;51.350;17.056;2022-08-26T07:58:14;13.10;;;5.85;;
68432;SDS011;55412;51.350;17.056;2022-08-26T08:00:41;11.52;;;5.68;;
68432;SDS011;55412;51.350;17.056;2022-08-26T08:03:08;13.93;;;6.03;;
68432;SDS011;55412;51.350;17.056;2022-08-26T08:05:35;12.35;;;5.65;;
68432;SDS011;55412;51.350;17.056;2022-08-26T08:08:04;12.90;;;6.57;;
68432;SDS011;55412;51.350;17.056;2022-08-26T08:10:33;15.35;;;7.03;;
68432;SDS011;55412;51.350;17.056;2022-08-26T08:13:00;24.40;;;8.23;;
68432;SDS011;55412;51.350;17.056;2022-08-26T08:15:28;14.10;;;5.45;;
68432;SDS011;55412;51.350;17.056;2022-08-26T08:17:56;12.70;;;6.40;;
68432;SDS011;55412;51.350;17.056;2022-08-26T08:20:22;15.50;;;6.90;;
68432;SDS011;55412;51.350;17.056;2022-08-26T08:22:50;14.40;;;6.13;;
68432;SDS011;55412;51.350;17.056;2022-08-26T08:25:18;13.48;;;5.75;;
68432;SDS011;55412;51.350;17.056;2022-08-26T08:27:44;13.40;;;5.95;;
68432;SDS011;55412;51.350;17.056;2022-08-26T08:30:13;16.50;;;6.18;;
68432;SDS011;55412;51.350;17.056;2022-08-26T08:32:45;16.97;;;6.43;;
68432;SDS011;55412;51.350;17.056;2022-08-26T08:35:13;15.52;;;6.53;;
68432;SDS011;55412;51.350;17.056;2022-08-26T08:37:42;16.38;;;5.95;;
68432;SDS011;55412;51.350;17.056;2022-08-26T08:40:09;21.73;;;6.47;;
68432;SDS011;55412;51.350;17.056;2022-08-26T08:42:46;15.45;;;6.25;;
68432;SDS011;55412;51.350;17.056;2022-08-26T08:45:35;14.57;;;6.20;;
68432;SDS011;55412;51.350;17.056;2022-08-26T08:48:11;15.20;;;6.10;;
68432;SDS011;55412;51.350;17.056;2022-08-26T08:53:49;14.07;;;5.05;;
68432;SDS011;55412;51.350;17.056;2022-08-26T09:02:08;13.40;;;4.82;;
68432;SDS011;55412;51.350;17.056;2022-08-26T09:08:05;13.52;;;4.10;;
68432;SDS011;55412;51.350;17.056;2022-08-26T09:10:38;12.00;;;4.85;;
68432;SDS011;55412;51.350;17.056;2022-08-26T09:13:09;11.23;;;3.83;;
68432;SDS011;55412;51.350;17.056;2022-08-26T09:15:41;13.00;;;4.10;;
68432;SDS011;55412;51.350;17.056;2022-08-26T09:21:21;8.15;;;3.90;;
68432;SDS011;55412;51.350;17.056;2022-08-26T09:23:49;9.43;;;4.00;;
68432;SDS011;55412;51.350;17.056;2022-08-26T09:29:04;11.57;;;4.38;;
68432;SDS011;55412;51.350;17.056;2022-08-26T09:31:46;14.85;;;4.18;;
68432;SDS011;55412;51.350;17.056;2022-08-26T09:34:14;8.45;;;3.70;;
68432;SDS011;55412;51.350;17.056;2022-08-26T09:42:11;10.80;;;4.90;;
68432;SDS011;55412;51.350;17.056;2022-08-26T09:44:59;10.73;;;3.63;;
68432;SDS011;55412;51.350;17.056;2022-08-26T09:53:08;6.97;;;3.07;;
68432;SDS011;55412;51.350;17.056;2022-08-26T09:55:42;8.82;;;3.95;;
68432;SDS011;55412;51.350;17.056;2022-08-26T09:58:33;13.27;;;3.90;;
68432;SDS011;55412;51.350;17.056;2022-08-26T10:01:02;10.07;;;3.40;;
68432;SDS011;55412;51.350;17.056;2022-08-26T10:03:39;9.50;;;3.22;;
68432;SDS011;55412;51.350;17.056;2022-08-26T10:06:27;13.93;;;3.50;;
68432;SDS011;55412;51.350;17.056;2022-08-26T10:09:01;7.82;;;3.38;;
68432;SDS011;55412;51.350;17.056;2022-08-26T10:14:23;8.23;;;3.88;;
68432;SDS011;55412;51.350;17.056;2022-08-26T10:17:10;11.73;;;3.42;;
68432;SDS011;55412;51.350;17.056;2022-08-26T10:19:58;8.43;;;3.03;;
68432;SDS011;55412;51.350;17.056;2022-08-26T10:22:41;15.95;;;3.88;;
68432;SDS011;55412;51.350;17.056;2022-08-26T10:25:32;7.97;;;2.85;;
68432;SDS011;55412;51.350;17.056;2022-08-26T10:28:13;9.90;;;4.15;;
68432;SDS011;55412;51.350;17.056;2022-08-26T10:30:44;10.95;;;3.60;;
68432;SDS011;55412;51.350;17.056;2022-08-26T10:33:16;14.50;;;3.33;;
68432;SDS011;55412;51.350;17.056;2022-08-26T10:36:02;12.20;;;3.55;;
68432;SDS011;55412;51.350;17.056;2022-08-26T10:38:54;10.40;;;3.33;;
68432;SDS011;55412;51.350;17.056;2022-08-26T10:41:24;5.97;;;2.80;;
68432;SDS011;55412;51.350;17.056;2022-08-26T10:43:57;11.00;;;3.10;;
68432;SDS011;55412;51.350;17.056;2022-08-26T10:46:26;9.10;;;3.17;;
68432;SDS011;55412;51.350;17.056;2022-08-26T10:49:11;6.65;;;2.70;;
68432;SDS011;55412;51.350;17.056;2022-08-26T10:51:49;10.27;;;3.28;;
68432;SDS011;55412;51.350;17.056;2022-08-26T10:54:46;12.15;;;2.97;;
68432;SDS011;55412;51.350;17.056;2022-08-26T10:57:27;8.60;;;3.03;;
68432;SDS011;55412;51.350;17.056;2022-08-26T11:00:10;19.00;;;4.13;;
68432;SDS011;55412;51.350;17.056;2022-08-26T11:03:10;10.60;;;3.63;;
68432;SDS011;55412;51.350;17.056;2022-08-26T11:08:45;8.95;;;2.90;;
68432;SDS011;55412;51.350;17.056;2022-08-26T11:14:07;7.60;;;2.67;;
68432;SDS011;55412;51.350;17.056;2022-08-26T11:16:55;7.78;;;2.70;;
68432;SDS011;55412;51.350;17.056;2022-08-26T11:22:24;7.88;;;2.80;;
68432;SDS011;55412;51.350;17.056;2022-08-26T11:38:26;10.40;;;2.63;;
68432;SDS011;55412;51.350;17.056;2022-08-26T11:41:16;47.08;;;3.92;;
68432;SDS011;55412;51.350;17.056;2022-08-26T11:43:45;11.02;;;2.55;;
68432;SDS011;55412;51.350;17.056;2022-08-26T11:46:22;9.45;;;2.30;;
68432;SDS011;55412;51.350;17.056;2022-08-26T11:49:03;9.77;;;2.60;;
68432;SDS011;55412;51.350;17.056;2022-08-26T11:51:33;8.87;;;2.60;;
68432;SDS011;55412;51.350;17.056;2022-08-26T11:54:33;31.08;;;3.35;;
68432;SDS011;55412;51.350;17.056;2022-08-26T11:56:52;7.57;;;2.60;;
68432;SDS011;55412;51.350;17.056;2022-08-26T11:59:31;10.25;;;2.60;;
68432;SDS011;55412;51.350;17.056;2022-08-26T12:02:02;9.15;;;2.30;;
68432;SDS011;55412;51.350;17.056;2022-08-26T12:04:37;8.67;;;2.60;;
68432;SDS011;55412;51.350;17.056;2022-08-26T12:07:07;10.45;;;2.85;;
68432;SDS011;55412;51.350;17.056;2022-08-26T12:09:35;8.50;;;3.08;;
68432;SDS011;55412;51.350;17.056;2022-08-26T12:12:10;15.55;;;2.72;;
68432;SDS011;55412;51.350;17.056;2022-08-26T12:14:43;6.20;;;2.85;;
68432;SDS011;55412;51.350;17.056;2022-08-26T12:17:16;7.87;;;2.43;;
68432;SDS011;55412;51.350;17.056;2022-08-26T12:19:50;7.18;;;3.00;;
68432;SDS011;55412;51.350;17.056;2022-08-26T12:22:19;12.00;;;2.92;;
68432;SDS011;55412;51.350;17.056;2022-08-26T12:24:51;8.93;;;2.17;;
68432;SDS011;55412;51.350;17.056;2022-08-26T12:32:47;8.10;;;2.33;;
68432;SDS011;55412;51.350;17.056;2022-08-26T12:35:18;6.65;;;2.53;;
68432;SDS011;55412;51.350;17.056;2022-08-26T12:37:49;8.63;;;2.30;;
68432;SDS011;55412;51.350;17.056;2022-08-26T12:40:33;9.98;;;2.80;;
68432;SDS011;55412;51.350;17.056;2022-08-26T12:43:06;6.83;;;2.47;;
68432;SDS011;55412;51.350;17.056;2022-08-26T12:45:34;6.85;;;2.20;;
68432;SDS011;55412;51.350;17.056;2022-08-26T12:48:11;7.60;;;2.33;;
68432;SDS011;55412;51.350;17.056;2022-08-26T12:51:05;14.65;;;2.38;;
68432;SDS011;55412;51.350;17.056;2022-08-26T12:53:40;13.13;;;3.03;;
68432;SDS011;55412;51.350;17.056;2022-08-26T12:56:23;9.30;;;2.50;;
68432;SDS011;55412;51.350;17.056;2022-08-26T12:59:04;7.65;;;2.53;;
68432;SDS011;55412;51.350;17.056;2022-08-26T13:01:43;8.18;;;2.20;;
68432;SDS011;55412;51.350;17.056;2022-08-26T13:09:57;6.33;;;1.97;;
68432;SDS011;55412;51.350;17.056;2022-08-26T13:12:28;8.43;;;2.05;;
68432;SDS011;55412;51.350;17.056;2022-08-26T13:15:02;8.98;;;2.67;;
68432;SDS011;55412;51.350;17.056;2022-08-26T13:17:30;5.97;;;2.63;;
68432;SDS011;55412;51.350;17.056;2022-08-26T13:19:58;10.68;;;2.42;;
68432;SDS011;55412;51.350;17.056;2022-08-26T13:22:25;8.17;;;2.50;;
68432;SDS011;55412;51.350;17.056;2022-08-26T13:24:52;10.68;;;2.38;;
68432;SDS011;55412;51.350;17.056;2022-08-26T13:27:21;9.10;;;2.55;;
68432;SDS011;55412;51.350;17.056;2022-08-26T13:29:50;8.60;;;2.58;;
68432;SDS011;55412;51.350;17.056;2022-08-26T13:32:17;11.68;;;3.00;;
68432;SDS011;55412;51.350;17.056;2022-08-26T13:34:48;6.73;;;2.50;;
68432;SDS011;55412;51.350;17.056;2022-08-26T13:37:15;11.60;;;2.50;;
68432;SDS011;55412;51.350;17.056;2022-08-26T13:39:46;6.95;;;2.60;;
68432;SDS011;55412;51.350;17.056;2022-08-26T13:42:17;8.10;;;2.25;;
68432;SDS011;55412;51.350;17.056;2022-08-26T13:44:44;8.43;;;2.42;;
68432;SDS011;55412;51.350;17.056;2022-08-26T13:47:14;7.13;;;2.40;;
68432;SDS011;55412;51.350;17.056;2022-08-26T13:49:41;13.30;;;2.45;;
68432;SDS011;55412;51.350;17.056;2022-08-26T13:52:11;5.97;;;1.95;;
68432;SDS011;55412;51.350;17.056;2022-08-26T13:54:37;12.77;;;2.40;;
68432;SDS011;55412;51.350;17.056;2022-08-26T13:57:04;7.60;;;2.25;;
68432;SDS011;55412;51.350;17.056;2022-08-26T13:59:30;9.87;;;2.03;;
68432;SDS011;55412;51.350;17.056;2022-08-26T14:01:56;8.00;;;1.88;;
68432;SDS011;55412;51.350;17.056;2022-08-26T14:04:23;5.13;;;1.77;;
68432;SDS011;55412;51.350;17.056;2022-08-26T14:06:49;10.77;;;2.35;;
68432;SDS011;55412;51.350;17.056;2022-08-26T14:09:15;12.07;;;1.98;;
68432;SDS011;55412;51.350;17.056;2022-08-26T14:11:41;6.67;;;1.50;;
68432;SDS011;55412;51.350;17.056;2022-08-26T14:14:07;7.40;;;2.47;;
68432;SDS011;55412;51.350;17.056;2022-08-26T14:16:34;10.18;;;2.08;;
68432;SDS011;55412;51.350;17.056;2022-08-26T14:19:03;7.45;;;2.05;;
68432;SDS011;55412;51.350;17.056;2022-08-26T14:21:35;5.63;;;1.90;;
68432;SDS011;55412;51.350;17.056;2022-08-26T14:24:04;13.23;;;2.30;;
68432;SDS011;55412;51.350;17.056;2022-08-26T14:26:31;11.50;;;2.30;;
68432;SDS011;55412;51.350;17.056;2022-08-26T14:28:57;6.55;;;1.92;;
68432;SDS011;55412;51.350;17.056;2022-08-26T14:31:24;6.10;;;2.30;;
68432;SDS011;55412;51.350;17.056;2022-08-26T14:33:53;11.50;;;2.63;;
68432;SDS011;55412;51.350;17.056;2022-08-26T14:36:23;6.20;;;2.13;;
68432;SDS011;55412;51.350;17.056;2022-08-26T14:38:53;5.60;;;1.88;;
68432;SDS011;55412;51.350;17.056;2022-08-26T14:41:21;8.85;;;2.45;;
68432;SDS011;55412;51.350;17.056;2022-08-26T14:43:51;13.73;;;2.80;;
68432;SDS011;55412;51.350;17.056;2022-08-26T14:46:24;13.00;;;2.70;;
68432;SDS011;55412;51.350;17.056;2022-08-26T14:48:53;15.57;;;3.00;;
68432;SDS011;55412;51.350;17.056;2022-08-26T14:51:22;7.68;;;2.47;;
68432;SDS011;55412;51.350;17.056;2022-08-26T14:53:48;8.95;;;2.28;;
68432;SDS011;55412;51.350;17.056;2022-08-26T14:56:34;9.02;;;2.03;;
68432;SDS011;55412;51.350;17.056;2022-08-26T14:59:03;9.02;;;2.70;;
68432;SDS011;55412;51.350;17.056;2022-08-26T15:01:29;9.07;;;2.03;;
68432;SDS011;55412;51.350;17.056;2022-08-26T15:03:57;11.50;;;2.25;;
68432;SDS011;55412;51.350;17.056;2022-08-26T15:06:25;11.00;;;2.60;;
68432;SDS011;55412;51.350;17.056;2022-08-26T15:08:53;7.68;;;1.90;;
68432;SDS011;55412;51.350;17.056;2022-08-26T15:11:19;9.70;;;2.33;;
68432;SDS011;55412;51.350;17.056;2022-08-26T15:13:45;10.57;;;2.07;;
68432;SDS011;55412;51.350;17.056;2022-08-26T15:16:12;7.57;;;2.30;;
68432;SDS011;55412;51.350;17.056;2022-08-26T15:18:38;10.40;;;2.33;;
68432;SDS011;55412;51.350;17.056;2022-08-26T15:21:05;9.50;;;1.88;;
68432;SDS011;55412;51.350;17.056;2022-08-26T15:23:32;11.27;;;2.42;;
68432;SDS011;55412;51.350;17.056;2022-08-26T15:26:03;14.30;;;2.30;;
68432;SDS011;55412;51.350;17.056;2022-08-26T15:28:32;7.30;;;2.03;;
68432;SDS011;55412;51.350;17.056;2022-08-26T15:30:59;10.05;;;2.10;;
68432;SDS011;55412;51.350;17.056;2022-08-26T15:33:25;7.35;;;2.38;;
68432;SDS011;55412;51.350;17.056;2022-08-26T15:35:51;7.30;;;2.05;;
68432;SDS011;55412;51.350;17.056;2022-08-26T15:38:17;8.50;;;2.00;;
68432;SDS011;55412;51.350;17.056;2022-08-26T15:40:43;7.38;;;2.40;;
68432;SDS011;55412;51.350;17.056;2022-08-26T15:43:10;11.05;;;2.30;;
68432;SDS011;55412;51.350;17.056;2022-08-26T15:45:36;10.00;;;2.78;;
68432;SDS011;55412;51.350;17.056;2022-08-26T15:48:02;9.85;;;2.78;;
68432;SDS011;55412;51.350;17.056;2022-08-26T15:50:28;9.73;;;2.53;;
68432;SDS011;55412;51.350;17.056;2022-08-26T15:52:55;12.43;;;3.00;;
68432;SDS011;55412;51.350;17.056;2022-08-26T15:55:23;13.55;;;2.40;;
68432;SDS011;55412;51.350;17.056;2022-08-26T15:57:49;13.63;;;2.97;;
68432;SDS011;55412;51.350;17.056;2022-08-26T16:00:15;12.20;;;2.38;;
68432;SDS011;55412;51.350;17.056;2022-08-26T16:02:42;7.97;;;2.17;;
68432;SDS011;55412;51.350;17.056;2022-08-26T16:05:08;9.50;;;2.42;;
68432;SDS011;55412;51.350;17.056;2022-08-26T16:07:34;8.75;;;2.25;;
68432;SDS011;55412;51.350;17.056;2022-08-26T16:10:00;9.20;;;2.50;;
68432;SDS011;55412;51.350;17.056;2022-08-26T16:12:26;6.20;;;2.70;;
68432;SDS011;55412;51.350;17.056;2022-08-26T16:14:52;9.20;;;2.57;;
68432;SDS011;55412;51.350;17.056;2022-08-26T16:17:18;8.07;;;2.53;;
68432;SDS011;55412;51.350;17.056;2022-08-26T16:19:45;12.40;;;3.05;;
68432;SDS011;55412;51.350;17.056;2022-08-26T16:22:11;13.40;;;2.70;;
68432;SDS011;55412;51.350;17.056;2022-08-26T16:24:37;11.68;;;2.38;;
68432;SDS011;55412;51.350;17.056;2022-08-26T16:27:03;11.13;;;2.50;;
68432;SDS011;55412;51.350;17.056;2022-08-26T16:29:30;10.48;;;2.03;;
68432;SDS011;55412;51.350;17.056;2022-08-26T16:31:56;11.18;;;3.22;;
68432;SDS011;55412;51.350;17.056;2022-08-26T16:34:23;5.03;;;2.17;;
68432;SDS011;55412;51.350;17.056;2022-08-26T16:36:49;8.55;;;2.60;;
68432;SDS011;55412;51.350;17.056;2022-08-26T16:39:15;12.43;;;2.30;;
68432;SDS011;55412;51.350;17.056;2022-08-26T16:41:41;9.73;;;2.40;;
68432;SDS011;55412;51.350;17.056;2022-08-26T16:44:08;9.27;;;2.30;;
68432;SDS011;55412;51.350;17.056;2022-08-26T16:46:35;7.78;;;2.30;;
68432;SDS011;55412;51.350;17.056;2022-08-26T16:49:03;6.65;;;1.60;;
68432;SDS011;55412;51.350;17.056;2022-08-26T16:51:29;7.37;;;1.83;;
68432;SDS011;55412;51.350;17.056;2022-08-26T16:53:57;9.95;;;1.90;;
68432;SDS011;55412;51.350;17.056;2022-08-26T16:56:27;8.70;;;2.47;;
68432;SDS011;55412;51.350;17.056;2022-08-26T16:58:56;9.90;;;2.00;;
68432;SDS011;55412;51.350;17.056;2022-08-26T17:01:22;6.35;;;1.77;;
68432;SDS011;55412;51.350;17.056;2022-08-26T17:03:48;9.00;;;2.00;;
68432;SDS011;55412;51.350;17.056;2022-08-26T17:06:15;9.52;;;2.60;;
68432;SDS011;55412;51.350;17.056;2022-08-26T17:08:41;10.55;;;2.55;;
68432;SDS011;55412;51.350;17.056;2022-08-26T17:11:08;39.65;;;3.92;;
68432;SDS011;55412;51.350;17.056;2022-08-26T17:13:35;10.70;;;2.10;;
68432;SDS011;55412;51.350;17.056;2022-08-26T17:16:03;6.70;;;1.97;;
68432;SDS011;55412;51.350;17.056;2022-08-26T17:18:32;7.13;;;2.22;;
68432;SDS011;55412;51.350;17.056;2022-08-26T17:21:00;9.85;;;1.73;;
68432;SDS011;55412;51.350;17.056;2022-08-26T17:23:33;6.18;;;2.00;;
68432;SDS011;55412;51.350;17.056;2022-08-26T17:26:00;10.05;;;2.25;;
68432;SDS011;55412;51.350;17.056;2022-08-26T17:28:26;11.13;;;2.57;;
68432;SDS011;55412;51.350;17.056;2022-08-26T17:30:54;8.75;;;1.83;;
68432;SDS011;55412;51.350;17.056;2022-08-26T17:33:21;8.30;;;2.90;;
68432;SDS011;55412;51.350;17.056;2022-08-26T17:35:47;9.20;;;2.50;;
68432;SDS011;55412;51.350;17.056;2022-08-26T17:38:14;8.65;;;2.58;;
68432;SDS011;55412;51.350;17.056;2022-08-26T17:40:40;9.10;;;2.93;;
68432;SDS011;55412;51.350;17.056;2022-08-26T17:43:06;8.15;;;2.28;;
68432;SDS011;55412;51.350;17.056;2022-08-26T17:45:32;10.23;;;2.70;;
68432;SDS011;55412;51.350;17.056;2022-08-26T17:48:02;8.90;;;2.35;;
68432;SDS011;55412;51.350;17.056;2022-08-26T17:50:29;11.82;;;3.03;;
68432;SDS011;55412;51.350;17.056;2022-08-26T17:52:56;14.40;;;3.37;;
68432;SDS011;55412;51.350;17.056;2022-08-26T17:55:22;8.52;;;3.20;;
68432;SDS011;55412;51.350;17.056;2022-08-26T17:57:48;13.95;;;3.45;;
68432;SDS011;55412;51.350;17.056;2022-08-26T18:00:16;10.05;;;3.22;;
68432;SDS011;55412;51.350;17.056;2022-08-26T18:02:45;9.73;;;3.03;;
68432;SDS011;55412;51.350;17.056;2022-08-26T18:05:13;13.17;;;3.70;;
68432;SDS011;55412;51.350;17.056;2022-08-26T18:07:41;9.45;;;3.08;;
68432;SDS011;55412;51.350;17.056;2022-08-26T18:10:08;11.80;;;3.83;;
68432;SDS011;55412;51.350;17.056;2022-08-26T18:12:37;10.85;;;3.95;;
68432;SDS011;55412;51.350;17.056;2022-08-26T18:15:05;6.97;;;3.53;;
68432;SDS011;55412;51.350;17.056;2022-08-26T18:17:31;11.40;;;3.47;;
68432;SDS011;55412;51.350;17.056;2022-08-26T18:19:57;9.45;;;3.10;;
68432;SDS011;55412;51.350;17.056;2022-08-26T18:22:24;10.63;;;3.70;;
68432;SDS011;55412;51.350;17.056;2022-08-26T18:24:50;11.13;;;3.83;;
68432;SDS011;55412;51.350;17.056;2022-08-26T18:27:16;9.98;;;4.07;;
68432;SDS011;55412;51.350;17.056;2022-08-26T18:29:42;9.77;;;3.40;;
68432;SDS011;55412;51.350;17.056;2022-08-26T18:32:10;14.63;;;3.60;;
68432;SDS011;55412;51.350;17.056;2022-08-26T18:34:37;8.82;;;3.30;;
68432;SDS011;55412;51.350;17.056;2022-08-26T18:37:03;12.43;;;4.22;;
68432;SDS011;55412;51.350;17.056;2022-08-26T18:39:30;15.57;;;4.50;;
68432;SDS011;55412;51.350;17.056;2022-08-26T18:41:57;10.07;;;3.87;;
68432;SDS011;55412;51.350;17.056;2022-08-26T18:44:23;12.27;;;3.92;;
68432;SDS011;55412;51.350;17.056;2022-08-26T18:46:49;10.43;;;3.92;;
68432;SDS011;55412;51.350;17.056;2022-08-26T18:49:17;9.90;;;4.15;;
68432;SDS011;55412;51.350;17.056;2022-08-26T18:51:45;13.10;;;4.47;;
68432;SDS011;55412;51.350;17.056;2022-08-26T18:54:15;24.37;;;5.50;;
68432;SDS011;55412;51.350;17.056;2022-08-26T18:56:42;11.57;;;4.55;;
68432;SDS011;55412;51.350;17.056;2022-08-26T18:59:08;10.95;;;5.18;;
68432;SDS011;55412;51.350;17.056;2022-08-26T19:01:36;22.45;;;5.03;;
68432;SDS011;55412;51.350;17.056;2022-08-26T19:04:05;12.93;;;5.10;;
68432;SDS011;55412;51.350;17.056;2022-08-26T19:06:34;15.40;;;4.60;;
68432;SDS011;55412;51.350;17.056;2022-08-26T19:09:03;12.38;;;3.95;;
68432;SDS011;55412;51.350;17.056;2022-08-26T19:11:31;12.35;;;4.10;;
68432;SDS011;55412;51.350;17.056;2022-08-26T19:14:01;12.48;;;4.28;;
68432;SDS011;55412;51.350;17.056;2022-08-26T19:16:31;15.23;;;4.32;;
68432;SDS011;55412;51.350;17.056;2022-08-26T19:18:57;15.17;;;4.27;;
68432;SDS011;55412;51.350;17.056;2022-08-26T19:21:25;10.05;;;4.40;;
68432;SDS011;55412;51.350;17.056;2022-08-26T19:23:57;10.10;;;4.13;;
68432;SDS011;55412;51.350;17.056;2022-08-26T19:26:25;9.35;;;4.30;;
68432;SDS011;55412;51.350;17.056;2022-08-26T19:28:53;8.98;;;4.13;;
68432;SDS011;55412;51.350;17.056;2022-08-26T19:31:20;9.50;;;3.83;;
68432;SDS011;55412;51.350;17.056;2022-08-26T19:33:46;15.95;;;3.80;;
68432;SDS011;55412;51.350;17.056;2022-08-26T19:36:30;11.93;;;3.80;;
68432;SDS011;55412;51.350;17.056;2022-08-26T19:38:58;11.88;;;4.35;;
68432;SDS011;55412;51.350;17.056;2022-08-26T19:41:27;11.80;;;3.40;;
68432;SDS011;55412;51.350;17.056;2022-08-26T19:43:56;11.03;;;3.57;;
68432;SDS011;55412;51.350;17.056;2022-08-26T19:46:23;12.23;;;2.95;;
68432;SDS011;55412;51.350;17.056;2022-08-26T19:48:50;12.48;;;4.05;;
68432;SDS011;55412;51.350;17.056;2022-08-26T19:51:18;13.63;;;3.85;;
68432;SDS011;55412;51.350;17.056;2022-08-26T19:53:52;14.98;;;4.18;;
68432;SDS011;55412;51.350;17.056;2022-08-26T19:56:20;9.80;;;3.90;;
68432;SDS011;55412;51.350;17.056;2022-08-26T19:58:47;7.88;;;3.22;;
68432;SDS011;55412;51.350;17.056;2022-08-26T20:01:14;9.45;;;3.30;;
68432;SDS011;55412;51.350;17.056;2022-08-26T20:03:42;5.63;;;2.83;;
68432;SDS011;55412;51.350;17.056;2022-08-26T20:06:09;10.82;;;3.28;;
68432;SDS011;55412;51.350;17.056;2022-08-26T20:08:39;8.10;;;3.10;;
68432;SDS011;55412;51.350;17.056;2022-08-26T20:11:07;7.63;;;2.67;;
68432;SDS011;55412;51.350;17.056;2022-08-26T20:13:37;18.20;;;3.05;;
68432;SDS011;55412;51.350;17.056;2022-08-26T20:16:04;5.25;;;2.55;;
68432;SDS011;55412;51.350;17.056;2022-08-26T20:18:30;10.32;;;2.92;;
68432;SDS011;55412;51.350;17.056;2022-08-26T20:21:15;21.33;;;3.27;;
68432;SDS011;55412;51.350;17.056;2022-08-26T20:24:13;11.73;;;3.38;;
68432;SDS011;55412;51.350;17.056;2022-08-26T20:26:40;10.73;;;3.03;;
68432;SDS011;55412;51.350;17.056;2022-08-26T20:29:09;13.00;;;2.70;;
68432;SDS011;55412;51.350;17.056;2022-08-26T20:31:39;11.20;;;3.67;;
68432;SDS011;55412;51.350;17.056;2022-08-26T20:34:06;9.53;;;3.77;;
68432;SDS011;55412;51.350;17.056;2022-08-26T20:36:32;13.77;;;4.13;;
68432;SDS011;55412;51.350;17.056;2022-08-26T20:38:59;10.95;;;3.67;;
68432;SDS011;55412;51.350;17.056;2022-08-26T20:41:25;13.50;;;3.45;;
68432;SDS011;55412;51.350;17.056;2022-08-26T20:43:56;11.82;;;4.43;;
68432;SDS011;55412;51.350;17.056;2022-08-26T20:46:26;18.20;;;4.07;;
68432;SDS011;55412;51.350;17.056;2022-08-26T20:48:52;16.38;;;5.47;;
68432;SDS011;55412;51.350;17.056;2022-08-26T20:51:19;12.65;;;4.45;;
68432;SDS011;55412;51.350;17.056;2022-08-26T20:53:50;9.65;;;3.55;;
68432;SDS011;55412;51.350;17.056;2022-08-26T20:56:18;29.05;;;4.13;;
68432;SDS011;55412;51.350;17.056;2022-08-26T20:58:49;8.27;;;3.00;;
68432;SDS011;55412;51.350;17.056;2022-08-26T21:01:21;9.43;;;3.53;;
68432;SDS011;55412;51.350;17.056;2022-08-26T21:03:52;12.02;;;3.35;;
68432;SDS011;55412;51.350;17.056;2022-08-26T21:06:21;9.82;;;3.50;;
68432;SDS011;55412;51.350;17.056;2022-08-26T21:08:48;16.60;;;3.70;;
68432;SDS011;55412;51.350;17.056;2022-08-26T21:11:14;8.73;;;2.73;;
68432;SDS011;55412;51.350;17.056;2022-08-26T21:13:43;7.70;;;3.03;;
68432;SDS011;55412;51.350;17.056;2022-08-26T21:16:10;11.85;;;3.50;;
68432;SDS011;55412;51.350;17.056;2022-08-26T21:18:36;12.65;;;3.25;;
68432;SDS011;55412;51.350;17.056;2022-08-26T21:21:03;9.70;;;2.80;;
68432;SDS011;55412;51.350;17.056;2022-08-26T21:23:34;8.57;;;3.23;;
68432;SDS011;55412;51.350;17.056;2022-08-26T21:26:04;9.43;;;2.78;;
68432;SDS011;55412;51.350;17.056;2022-08-26T21:28:34;11.60;;;3.53;;
68432;SDS011;55412;51.350;17.056;2022-08-26T21:31:03;7.82;;;2.50;;
68432;SDS011;55412;51.350;17.056;2022-08-26T21:33:31;16.38;;;2.67;;
68432;SDS011;55412;51.350;17.056;2022-08-26T21:35:59;15.37;;;3.23;;
68432;SDS011;55412;51.350;17.056;2022-08-26T21:38:26;7.57;;;2.40;;
68432;SDS011;55412;51.350;17.056;2022-08-26T21:41:04;11.05;;;3.40;;
68432;SDS011;55412;51.350;17.056;2022-08-26T21:43:38;11.95;;;3.40;;
68432;SDS011;55412;51.350;17.056;2022-08-26T21:46:07;18.80;;;4.10;;
68432;SDS011;55412;51.350;17.056;2022-08-26T21:48:43;9.57;;;3.70;;
68432;SDS011;55412;51.350;17.056;2022-08-26T21:51:13;9.80;;;3.88;;
68432;SDS011;55412;51.350;17.056;2022-08-26T21:53:42;12.80;;;3.53;;
68432;SDS011;55412;51.350;17.056;2022-08-26T21:56:09;13.80;;;3.80;;
68432;SDS011;55412;51.350;17.056;2022-08-26T21:58:39;9.40;;;3.80;;
68432;SDS011;55412;51.350;17.056;2022-08-26T22:01:13;16.17;;;5.07;;
68432;SDS011;55412;51.350;17.056;2022-08-26T22:03:43;11.15;;;4.50;;
68432;SDS011;55412;51.350;17.056;2022-08-26T22:06:09;9.27;;;3.47;;
68432;SDS011;55412;51.350;17.056;2022-08-26T22:08:36;11.93;;;3.45;;
68432;SDS011;55412;51.350;17.056;2022-08-26T22:11:02;11.70;;;3.55;;
68432;SDS011;55412;51.350;17.056;2022-08-26T22:13:31;11.93;;;3.40;;
68432;SDS011;55412;51.350;17.056;2022-08-26T22:16:02;9.32;;;3.67;;
68432;SDS011;55412;51.350;17.056;2022-08-26T22:18:29;10.10;;;3.80;;
68432;SDS011;55412;51.350;17.056;2022-08-26T22:20:58;10.73;;;3.10;;
68432;SDS011;55412;51.350;17.056;2022-08-26T22:23:28;10.02;;;3.05;;
68432;SDS011;55412;51.350;17.056;2022-08-26T22:25:54;9.23;;;2.97;;